createdAt,value
2022-08-19T00:00:48.183Z,995.02
2022-08-19T00:01:53.134Z,995.06
2022-08-19T00:02:50.456Z,995.11
2022-08-19T00:03:48.170Z,995.18
2022-08-19T00:04:48.193Z,995.20
2022-08-19T00:05:48.124Z,995.24
2022-08-19T00:06:48.115Z,995.28
2022-08-19T00:07:48.103Z,995.28
2022-08-19T00:08:48.131Z,995.30
2022-08-19T00:09:48.102Z,995.29
2022-08-19T00:10:48.052Z,995.28
2022-08-19T00:11:48.092Z,995.25
2022-08-19T00:12:48.112Z,995.19
2022-08-19T00:13:48.032Z,995.15
2022-08-19T00:14:48.078Z,995.03
2022-08-19T00:15:47.991Z,994.98
2022-08-19T00:16:47.974Z,994.95
2022-08-19T00:17:47.973Z,994.90
2022-08-19T00:18:47.964Z,994.83
2022-08-19T00:19:47.943Z,994.85
2022-08-19T00:20:47.923Z,994.87
2022-08-19T00:21:47.913Z,994.95
2022-08-19T00:22:47.943Z,994.99
2022-08-19T00:23:47.903Z,995.02
2022-08-19T00:24:50.917Z,995.08
2022-08-19T00:25:48.871Z,995.10
2022-08-19T00:26:47.844Z,995.17
2022-08-19T00:27:47.834Z,995.18
2022-08-19T00:28:47.834Z,995.20
2022-08-19T00:29:52.661Z,995.18
2022-08-19T00:30:48.793Z,995.13
2022-08-19T00:31:47.774Z,995.06
2022-08-19T00:32:47.774Z,995.01
2022-08-19T00:33:47.764Z,994.91
2022-08-19T00:34:47.735Z,994.82
2022-08-19T00:35:47.727Z,994.77
2022-08-19T00:36:48.718Z,994.67
2022-08-19T00:37:47.703Z,994.65
2022-08-19T00:38:47.695Z,994.61
2022-08-19T00:39:49.066Z,994.63
2022-08-19T00:40:47.669Z,994.65
2022-08-19T00:41:47.979Z,994.66
2022-08-19T00:42:47.658Z,994.77
2022-08-19T00:43:47.639Z,994.86
2022-08-19T00:44:47.610Z,994.88
2022-08-19T00:45:47.593Z,994.95
2022-08-19T00:46:55.289Z,994.97
2022-08-19T00:47:48.575Z,994.90
2022-08-19T00:48:47.573Z,994.93
2022-08-19T00:49:47.557Z,994.88
2022-08-19T00:50:52.044Z,994.86
2022-08-19T00:51:47.525Z,994.79
2022-08-19T00:52:47.553Z,994.80
2022-08-19T00:53:47.507Z,994.72
2022-08-19T00:54:51.986Z,994.66
2022-08-19T00:55:48.464Z,994.58
2022-08-19T00:56:47.448Z,994.56
2022-08-19T00:57:47.435Z,994.50
2022-08-19T00:58:47.445Z,994.48
2022-08-19T01:00:01.210Z,994.45
2022-08-19T01:00:48.483Z,994.46
2022-08-19T01:01:47.463Z,994.41
2022-08-19T01:02:48.043Z,994.37
2022-08-19T01:03:56.788Z,994.39
2022-08-19T01:04:48.344Z,994.36
2022-08-19T01:05:47.327Z,994.35
2022-08-19T01:06:47.305Z,994.36
2022-08-19T01:07:47.296Z,994.36
2022-08-19T01:08:47.296Z,994.41
2022-08-19T01:09:47.292Z,994.41
2022-08-19T01:10:47.259Z,994.41
2022-08-19T01:11:47.257Z,994.39
2022-08-19T01:12:47.288Z,994.39
2022-08-19T01:13:50.116Z,994.38
2022-08-19T01:14:47.205Z,994.35
2022-08-19T01:15:47.197Z,994.30
2022-08-19T01:16:47.177Z,994.18
2022-08-19T01:17:47.179Z,994.13
2022-08-19T01:18:47.177Z,994.04
2022-08-19T01:19:47.147Z,993.98
2022-08-19T01:20:47.118Z,993.93
2022-08-19T01:21:47.108Z,993.89
2022-08-19T01:22:47.203Z,993.85
2022-08-19T01:23:47.108Z,993.86
2022-08-19T01:24:49.713Z,993.78
2022-08-19T01:25:47.059Z,993.84
2022-08-19T01:26:47.041Z,993.84
2022-08-19T01:27:47.034Z,993.93
2022-08-19T01:28:47.028Z,993.91
2022-08-19T01:29:47.029Z,993.99
2022-08-19T01:30:50.973Z,993.98
2022-08-19T01:31:46.977Z,994.02
2022-08-19T01:32:47.039Z,994.05
2022-08-19T01:33:46.966Z,994.06
2022-08-19T01:34:46.942Z,994.10
2022-08-19T01:35:46.937Z,994.09
2022-08-19T01:36:46.907Z,994.12
2022-08-19T01:37:46.899Z,994.09
2022-08-19T01:38:46.902Z,994.03
2022-08-19T01:39:46.913Z,994.08
2022-08-19T01:40:46.851Z,994.02
2022-08-19T01:41:46.849Z,993.97
2022-08-19T01:42:46.896Z,993.93
2022-08-19T01:44:18.159Z,993.94
2022-08-19T01:44:47.799Z,993.94
2022-08-19T01:45:46.791Z,993.94
2022-08-19T01:46:46.783Z,993.96
2022-08-19T01:47:52.780Z,993.99
2022-08-19T01:48:47.771Z,993.96
2022-08-19T01:49:46.748Z,993.90
2022-08-19T01:50:46.721Z,993.93
2022-08-19T01:51:46.719Z,993.85
2022-08-19T01:52:46.786Z,993.88
2022-08-19T01:53:47.702Z,993.84
2022-08-19T01:54:46.674Z,993.81
2022-08-19T01:55:46.664Z,993.81
2022-08-19T01:56:46.643Z,993.90
2022-08-19T01:57:46.635Z,993.92
2022-08-19T01:58:46.633Z,993.92
2022-08-19T01:59:46.639Z,993.96
2022-08-19T02:00:46.607Z,993.99
2022-08-19T02:01:46.626Z,994.02
2022-08-19T02:02:46.664Z,993.99
2022-08-19T02:03:46.576Z,993.97
2022-08-19T02:04:46.553Z,993.99
2022-08-19T02:05:46.573Z,993.97
2022-08-19T02:06:46.511Z,993.96
2022-08-19T02:07:46.500Z,993.96
2022-08-19T02:08:46.497Z,993.92
2022-08-19T02:09:46.480Z,993.93
2022-08-19T02:10:46.464Z,993.92
2022-08-19T02:11:46.461Z,993.95
2022-08-19T02:12:46.526Z,993.93
2022-08-19T02:13:46.447Z,993.95
2022-08-19T02:14:46.413Z,993.95
2022-08-19T02:15:46.396Z,993.95
2022-08-19T02:16:46.409Z,993.97
2022-08-19T02:17:46.375Z,993.95
2022-08-19T02:18:46.361Z,993.88
2022-08-19T02:19:46.348Z,993.87
2022-08-19T02:20:46.323Z,993.84
2022-08-19T02:21:46.313Z,993.78
2022-08-19T02:22:46.314Z,993.74
2022-08-19T02:23:46.306Z,993.69
2022-08-19T02:24:46.275Z,993.63
2022-08-19T02:25:46.268Z,993.58
2022-08-19T02:26:46.259Z,993.53
2022-08-19T02:27:46.234Z,993.50
2022-08-19T02:28:46.234Z,993.53
2022-08-19T02:29:46.215Z,993.49
2022-08-19T02:30:46.191Z,993.54
2022-08-19T02:31:46.184Z,993.52
2022-08-19T02:32:46.231Z,993.57
2022-08-19T02:33:46.169Z,993.54
2022-08-19T02:34:46.141Z,993.60
2022-08-19T02:35:46.139Z,993.60
2022-08-19T02:36:46.114Z,993.60
2022-08-19T02:37:47.124Z,993.59
2022-08-19T02:38:47.165Z,993.55
2022-08-19T02:39:47.140Z,993.56
2022-08-19T02:40:46.068Z,993.56
2022-08-19T02:41:46.054Z,993.56
2022-08-19T02:42:46.052Z,993.52
2022-08-19T02:44:22.838Z,993.52
2022-08-19T02:44:47.006Z,993.52
2022-08-19T02:45:45.996Z,993.49
2022-08-19T02:46:45.976Z,993.53
2022-08-19T02:47:45.982Z,993.50
2022-08-19T02:48:45.946Z,993.58
2022-08-19T02:49:45.944Z,993.60
2022-08-19T02:50:51.933Z,993.65
2022-08-19T02:51:46.963Z,993.74
2022-08-19T02:52:45.914Z,993.77
2022-08-19T02:53:45.895Z,993.84
2022-08-19T02:54:45.876Z,993.92
2022-08-19T02:55:46.367Z,993.99
2022-08-19T02:56:45.844Z,994.07
2022-08-19T02:57:45.844Z,994.14
2022-08-19T02:58:45.832Z,994.15
2022-08-19T02:59:45.809Z,994.22
2022-08-19T03:00:45.796Z,994.25
2022-08-19T03:01:45.847Z,994.24
2022-08-19T03:02:45.776Z,994.27
2022-08-19T03:03:45.759Z,994.29
2022-08-19T03:04:45.746Z,994.30
2022-08-19T03:05:55.756Z,994.28
2022-08-19T03:06:46.720Z,994.29
2022-08-19T03:07:45.718Z,994.32
2022-08-19T03:08:45.695Z,994.33
2022-08-19T03:09:45.675Z,994.33
2022-08-19T03:10:45.664Z,994.33
2022-08-19T03:11:45.666Z,994.35
2022-08-19T03:12:45.660Z,994.39
2022-08-19T03:13:45.626Z,994.37
2022-08-19T03:14:45.616Z,994.40
2022-08-19T03:15:45.598Z,994.39
2022-08-19T03:16:45.579Z,994.52
2022-08-19T03:17:45.581Z,994.56
2022-08-19T03:18:45.549Z,994.62
2022-08-19T03:19:45.558Z,994.65
2022-08-19T03:20:45.525Z,994.65
2022-08-19T03:21:45.528Z,994.72
2022-08-19T03:22:45.515Z,994.71
2022-08-19T03:23:45.502Z,994.75
2022-08-19T03:24:45.474Z,994.73
2022-08-19T03:25:45.476Z,994.78
2022-08-19T03:26:45.459Z,994.81
2022-08-19T03:27:45.457Z,994.80
2022-08-19T03:28:51.010Z,994.83
2022-08-19T03:29:46.409Z,994.82
2022-08-19T03:30:45.402Z,994.77
2022-08-19T03:31:52.609Z,994.80
2022-08-19T03:32:46.433Z,994.77
2022-08-19T03:33:46.366Z,994.79
2022-08-19T03:34:45.344Z,994.81
2022-08-19T03:35:45.328Z,994.85
2022-08-19T03:36:45.307Z,994.85
2022-08-19T03:37:45.307Z,994.86
2022-08-19T03:38:45.286Z,994.85
2022-08-19T03:39:45.340Z,994.84
2022-08-19T03:40:45.256Z,994.79
2022-08-19T03:41:46.502Z,994.80
2022-08-19T03:42:49.063Z,994.76
2022-08-19T03:43:45.227Z,994.76
2022-08-19T03:44:45.227Z,994.73
2022-08-19T03:45:45.197Z,994.78
2022-08-19T03:46:45.178Z,994.77
2022-08-19T03:47:45.178Z,994.76
2022-08-19T03:48:45.152Z,994.81
2022-08-19T03:49:48.977Z,994.79
2022-08-19T03:50:45.127Z,994.77
2022-08-19T03:51:45.121Z,994.81
2022-08-19T03:52:45.458Z,994.80
2022-08-19T03:53:45.091Z,994.78
2022-08-19T03:54:45.071Z,994.78
2022-08-19T03:55:45.059Z,994.76
2022-08-19T03:56:45.051Z,994.82
2022-08-19T03:57:45.038Z,994.79
2022-08-19T03:58:45.029Z,994.80
2022-08-19T03:59:45.076Z,994.81
2022-08-19T04:00:44.989Z,994.79
2022-08-19T04:01:45.051Z,994.80
2022-08-19T04:02:58.880Z,994.82
2022-08-19T04:03:45.959Z,994.81
2022-08-19T04:04:44.960Z,994.76
2022-08-19T04:05:44.919Z,994.74
2022-08-19T04:06:44.920Z,994.67
2022-08-19T04:07:44.911Z,994.62
2022-08-19T04:08:44.891Z,994.65
2022-08-19T04:09:44.889Z,994.60
2022-08-19T04:10:44.865Z,994.59
2022-08-19T04:11:45.191Z,994.63
2022-08-19T04:12:44.848Z,994.65
2022-08-19T04:13:44.822Z,994.64
2022-08-19T04:14:44.817Z,994.66
2022-08-19T04:15:44.791Z,994.64
2022-08-19T04:16:44.849Z,994.62
2022-08-19T04:17:44.777Z,994.60
2022-08-19T04:18:44.759Z,994.58
2022-08-19T04:19:44.743Z,994.52
2022-08-19T04:20:44.733Z,994.50
2022-08-19T04:21:44.714Z,994.48
2022-08-19T04:22:44.733Z,994.47
2022-08-19T04:23:45.913Z,994.47
2022-08-19T04:24:44.681Z,994.47
2022-08-19T04:25:44.665Z,994.49
2022-08-19T04:26:44.664Z,994.48
2022-08-19T04:27:44.864Z,994.51
2022-08-19T04:28:44.981Z,994.51
2022-08-19T04:29:44.721Z,994.55
2022-08-19T04:30:44.600Z,994.50
2022-08-19T04:31:44.589Z,994.52
2022-08-19T04:32:44.574Z,994.56
2022-08-19T04:33:44.551Z,994.55
2022-08-19T04:35:02.156Z,994.54
2022-08-19T04:35:45.522Z,994.58
2022-08-19T04:36:44.535Z,994.60
2022-08-19T04:37:44.500Z,994.60
2022-08-19T04:38:44.492Z,994.58
2022-08-19T04:39:44.525Z,994.66
2022-08-19T04:40:44.471Z,994.63
2022-08-19T04:41:44.476Z,994.60
2022-08-19T04:42:44.434Z,994.67
2022-08-19T04:43:44.445Z,994.63
2022-08-19T04:44:46.342Z,994.67
2022-08-19T04:45:44.644Z,994.68
2022-08-19T04:46:51.417Z,994.69
2022-08-19T04:47:47.780Z,994.72
2022-08-19T04:48:49.195Z,994.69
2022-08-19T04:49:44.351Z,994.70
2022-08-19T04:50:44.332Z,994.66
2022-08-19T04:51:44.332Z,994.63
2022-08-19T04:52:44.308Z,994.58
2022-08-19T04:53:44.286Z,994.60
2022-08-19T04:54:44.431Z,994.54
2022-08-19T04:55:44.271Z,994.59
2022-08-19T04:56:44.274Z,994.63
2022-08-19T04:57:44.241Z,994.65
2022-08-19T04:58:44.226Z,994.67
2022-08-19T04:59:44.214Z,994.70
2022-08-19T05:00:44.280Z,994.70
2022-08-19T05:01:44.231Z,994.71
2022-08-19T05:02:44.163Z,994.75
2022-08-19T05:03:44.154Z,994.70
2022-08-19T05:04:44.142Z,994.71
2022-08-19T05:05:44.587Z,994.72
2022-08-19T05:06:44.135Z,994.74
2022-08-19T05:07:44.101Z,994.75
2022-08-19T05:08:44.090Z,994.76
2022-08-19T05:09:58.441Z,994.78
2022-08-19T05:10:45.071Z,994.80
2022-08-19T05:11:44.051Z,994.82
2022-08-19T05:12:44.965Z,994.88
2022-08-19T05:13:44.012Z,994.87
2022-08-19T05:14:44.013Z,994.86
2022-08-19T05:15:44.001Z,994.80
2022-08-19T05:16:44.012Z,994.80
2022-08-19T05:17:43.979Z,994.81
2022-08-19T05:18:43.955Z,994.85
2022-08-19T05:19:43.952Z,994.86
2022-08-19T05:20:43.925Z,994.88
2022-08-19T05:21:43.943Z,994.91
2022-08-19T05:22:43.919Z,994.86
2022-08-19T05:23:43.895Z,994.87
2022-08-19T05:25:02.432Z,994.83
2022-08-19T05:25:44.865Z,994.85
2022-08-19T05:26:43.862Z,994.84
2022-08-19T05:27:43.842Z,994.90
2022-08-19T05:28:43.835Z,994.92
2022-08-19T05:29:43.803Z,994.95
2022-08-19T05:30:47.478Z,994.94
2022-08-19T05:31:43.797Z,994.93
2022-08-19T05:32:43.806Z,994.96
2022-08-19T05:33:43.757Z,994.91
2022-08-19T05:34:43.744Z,994.91
2022-08-19T05:35:43.734Z,994.94
2022-08-19T05:36:43.734Z,994.92
2022-08-19T05:37:43.696Z,994.94
2022-08-19T05:38:43.697Z,994.97
2022-08-19T05:39:44.979Z,994.96
2022-08-19T05:40:43.665Z,995.01
2022-08-19T05:41:43.663Z,995.04
2022-08-19T05:42:43.642Z,995.01
2022-08-19T05:43:43.624Z,995.05
2022-08-19T05:44:43.616Z,995.08
2022-08-19T05:45:43.595Z,995.11
2022-08-19T05:46:43.595Z,995.10
2022-08-19T05:47:43.580Z,995.09
2022-08-19T05:48:43.571Z,995.16
2022-08-19T05:49:43.543Z,995.14
2022-08-19T05:50:43.536Z,995.17
2022-08-19T05:51:43.536Z,995.17
2022-08-19T05:52:45.886Z,995.20
2022-08-19T05:53:44.485Z,995.22
2022-08-19T05:54:43.497Z,995.24
2022-08-19T05:55:43.470Z,995.28
2022-08-19T05:56:43.449Z,995.24
2022-08-19T05:57:43.464Z,995.27
2022-08-19T05:58:43.427Z,995.22
2022-08-19T05:59:43.416Z,995.21
2022-08-19T06:00:43.394Z,995.22
2022-08-19T06:01:43.390Z,995.20
2022-08-19T06:02:43.442Z,995.16
2022-08-19T06:03:43.358Z,995.12
2022-08-19T06:04:43.352Z,995.11
2022-08-19T06:05:49.643Z,995.09
2022-08-19T06:06:44.365Z,995.05
2022-08-19T06:07:43.302Z,995.04
2022-08-19T06:08:43.300Z,994.97
2022-08-19T06:09:43.779Z,995.03
2022-08-19T06:10:44.274Z,995.01
2022-08-19T06:11:43.268Z,995.06
2022-08-19T06:12:43.249Z,995.06
2022-08-19T06:13:43.226Z,995.07
2022-08-19T06:14:43.235Z,995.09
2022-08-19T06:15:43.200Z,995.20
2022-08-19T06:16:43.197Z,995.21
2022-08-19T06:17:43.173Z,995.29
2022-08-19T06:18:43.160Z,995.37
2022-08-19T06:19:43.150Z,995.44
2022-08-19T06:20:55.426Z,995.48
2022-08-19T06:21:44.149Z,995.54
2022-08-19T06:22:43.113Z,995.59
2022-08-19T06:23:43.088Z,995.61
2022-08-19T06:24:43.087Z,995.68
2022-08-19T06:25:43.060Z,995.72
2022-08-19T06:26:43.154Z,995.79
2022-08-19T06:28:44.031Z,995.86
2022-08-19T06:29:43.020Z,995.91
2022-08-19T06:30:43.010Z,995.95
2022-08-19T06:31:43.000Z,995.99
2022-08-19T06:32:43.154Z,996.01
2022-08-19T06:33:42.970Z,996.02
2022-08-19T06:34:42.959Z,996.05
2022-08-19T06:35:42.931Z,996.05
2022-08-19T06:36:42.930Z,996.06
2022-08-19T06:37:43.871Z,996.08
2022-08-19T06:38:42.891Z,996.15
2022-08-19T06:39:42.949Z,996.12
2022-08-19T06:41:48.804Z,996.16
2022-08-19T06:42:54.265Z,996.13
2022-08-19T06:43:43.827Z,996.18
2022-08-19T06:45:42.834Z,996.18
2022-08-19T06:46:42.809Z,996.18
2022-08-19T06:47:42.789Z,996.19
2022-08-19T06:48:45.919Z,996.24
2022-08-19T06:49:44.380Z,996.27
2022-08-19T06:50:42.769Z,996.27
2022-08-19T06:51:44.209Z,996.30
2022-08-19T06:52:42.728Z,996.33
2022-08-19T06:53:42.751Z,996.37
2022-08-19T06:54:53.700Z,996.37
2022-08-19T06:55:43.735Z,996.41
2022-08-19T06:56:42.671Z,996.37
2022-08-19T06:57:42.651Z,996.38
2022-08-19T06:58:42.643Z,996.42
2022-08-19T06:59:42.648Z,996.42
2022-08-19T07:00:42.622Z,996.42
2022-08-19T07:01:42.600Z,996.51
2022-08-19T07:02:46.297Z,996.49
2022-08-19T07:03:43.593Z,996.50
2022-08-19T07:04:42.697Z,996.52
2022-08-19T07:05:45.497Z,996.53
2022-08-19T07:06:43.979Z,996.51
2022-08-19T07:07:42.760Z,996.52
2022-08-19T07:08:42.519Z,996.53
2022-08-19T07:09:42.499Z,996.50
2022-08-19T07:10:42.895Z,996.52
2022-08-19T07:11:42.461Z,996.53
2022-08-19T07:12:42.460Z,996.51
2022-08-19T07:13:42.439Z,996.53
2022-08-19T07:14:42.430Z,996.56
2022-08-19T07:15:42.448Z,996.50
2022-08-19T07:16:43.128Z,996.52
2022-08-19T07:17:42.395Z,996.48
2022-08-19T07:18:43.914Z,996.47
2022-08-19T07:19:42.353Z,996.51
2022-08-19T07:20:42.375Z,996.51
2022-08-19T07:21:42.341Z,996.47
2022-08-19T07:22:42.323Z,996.47
2022-08-19T07:23:42.316Z,996.41
2022-08-19T07:24:50.997Z,996.44
2022-08-19T07:25:43.291Z,996.41
2022-08-19T07:26:42.376Z,996.45
2022-08-19T07:27:42.262Z,996.42
2022-08-19T07:28:46.052Z,996.40
2022-08-19T07:29:43.222Z,996.36
2022-08-19T07:30:42.236Z,996.30
2022-08-19T07:31:43.504Z,996.32
2022-08-19T07:32:42.191Z,996.31
2022-08-19T07:33:42.170Z,996.40
2022-08-19T07:34:42.176Z,996.40
2022-08-19T07:35:42.153Z,996.44
2022-08-19T07:36:42.132Z,996.43
2022-08-19T07:37:42.127Z,996.46
2022-08-19T07:38:42.105Z,996.53
2022-08-19T07:39:42.219Z,996.50
2022-08-19T07:40:42.091Z,996.51
2022-08-19T07:41:42.074Z,996.54
2022-08-19T07:42:42.059Z,996.54
2022-08-19T07:43:42.034Z,996.56
2022-08-19T07:44:42.202Z,996.61
2022-08-19T07:45:43.012Z,996.57
2022-08-19T07:46:42.004Z,996.56
2022-08-19T07:47:58.668Z,996.58
2022-08-19T07:48:42.976Z,996.55
2022-08-19T07:49:41.963Z,996.55
2022-08-19T07:50:41.952Z,996.50
2022-08-19T07:51:41.935Z,996.51
2022-08-19T07:52:41.924Z,996.56
2022-08-19T07:53:41.905Z,996.51
2022-08-19T07:54:41.916Z,996.56
2022-08-19T07:55:43.760Z,996.55
2022-08-19T07:56:56.554Z,996.56
2022-08-19T07:57:41.906Z,996.57
2022-08-19T07:58:41.835Z,996.56
2022-08-19T07:59:41.842Z,996.62
2022-08-19T08:00:41.843Z,996.63
2022-08-19T08:01:42.115Z,996.64
2022-08-19T08:02:41.784Z,996.62
2022-08-19T08:03:41.776Z,996.63
2022-08-19T08:04:41.767Z,996.67
2022-08-19T08:05:43.708Z,996.72
2022-08-19T08:06:41.725Z,996.69
2022-08-19T08:07:41.737Z,996.71
2022-08-19T08:08:44.318Z,996.71
2022-08-19T08:09:42.749Z,996.71
2022-08-19T08:10:41.700Z,996.71
2022-08-19T08:11:41.676Z,996.72
2022-08-19T08:12:41.645Z,996.68
2022-08-19T08:13:41.646Z,996.68
2022-08-19T08:14:44.157Z,996.73
2022-08-19T08:15:43.303Z,996.75
2022-08-19T08:16:47.032Z,996.81
2022-08-19T08:17:49.443Z,996.83
2022-08-19T08:18:42.573Z,996.86
2022-08-19T08:19:41.569Z,996.87
2022-08-19T08:20:41.535Z,996.90
2022-08-19T08:21:41.555Z,996.93
2022-08-19T08:22:41.515Z,996.93
2022-08-19T08:23:41.552Z,996.93
2022-08-19T08:24:41.526Z,996.93
2022-08-19T08:25:41.475Z,996.97
2022-08-19T08:26:41.467Z,996.97
2022-08-19T08:27:42.454Z,996.99
2022-08-19T08:28:41.452Z,996.95
2022-08-19T08:29:42.443Z,996.94
2022-08-19T08:30:41.407Z,996.93
2022-08-19T08:31:41.401Z,996.94
2022-08-19T08:32:41.408Z,996.96
2022-08-19T08:33:41.375Z,996.94
2022-08-19T08:34:41.375Z,996.92
2022-08-19T08:35:41.350Z,996.96
2022-08-19T08:36:41.332Z,997.01
2022-08-19T08:37:41.330Z,996.98
2022-08-19T08:38:41.913Z,996.93
2022-08-19T08:39:41.363Z,996.93
2022-08-19T08:40:41.277Z,996.99
2022-08-19T08:41:41.265Z,996.93
2022-08-19T08:42:41.259Z,996.89
2022-08-19T08:43:41.237Z,996.99
2022-08-19T08:44:41.250Z,996.93
2022-08-19T08:45:42.581Z,996.99
2022-08-19T08:46:41.197Z,996.96
2022-08-19T08:47:42.009Z,997.01
2022-08-19T08:48:41.179Z,997.05
2022-08-19T08:49:41.167Z,997.02
2022-08-19T08:50:41.146Z,996.99
2022-08-19T08:52:41.127Z,997.01
2022-08-19T08:53:42.029Z,996.96
2022-08-19T08:54:41.106Z,996.94
2022-08-19T08:55:42.077Z,996.93
2022-08-19T08:56:41.070Z,996.93
2022-08-19T08:57:50.553Z,996.91
2022-08-19T08:58:42.066Z,996.82
2022-08-19T08:59:41.027Z,996.84
2022-08-19T09:00:41.006Z,996.85
2022-08-19T09:01:41.038Z,996.90
2022-08-19T09:02:40.990Z,996.88
2022-08-19T09:03:40.965Z,996.89
2022-08-19T09:04:40.975Z,996.89
2022-08-19T09:05:48.286Z,996.93
2022-08-19T09:06:41.945Z,996.92
2022-08-19T09:07:43.617Z,996.89
2022-08-19T09:08:40.907Z,996.94
2022-08-19T09:09:42.002Z,996.96
2022-08-19T09:10:44.296Z,997.00
2022-08-19T09:11:42.844Z,997.04
2022-08-19T09:12:43.027Z,997.03
2022-08-19T09:13:40.826Z,997.04
2022-08-19T09:14:50.179Z,997.07
2022-08-19T09:15:42.005Z,997.05
2022-08-19T09:16:40.808Z,997.09
2022-08-19T09:17:40.783Z,997.09
2022-08-19T09:18:40.779Z,997.05
2022-08-19T09:19:40.780Z,997.06
2022-08-19T09:20:42.533Z,997.11
2022-08-19T09:21:40.726Z,997.09
2022-08-19T09:22:40.719Z,997.10
2022-08-19T09:23:40.698Z,997.10
2022-08-19T09:24:40.697Z,997.10
2022-08-19T09:25:40.677Z,997.09
2022-08-19T09:26:47.646Z,997.04
2022-08-19T09:27:42.959Z,997.04
2022-08-19T09:28:40.638Z,997.08
2022-08-19T09:29:40.660Z,997.02
2022-08-19T09:30:40.610Z,997.01
2022-08-19T09:31:40.588Z,997.01
2022-08-19T09:32:40.597Z,996.94
2022-08-19T09:33:40.569Z,996.92
2022-08-19T09:34:44.279Z,996.87
2022-08-19T09:35:49.429Z,996.88
2022-08-19T09:36:41.534Z,996.86
2022-08-19T09:37:40.613Z,996.80
2022-08-19T09:38:43.407Z,996.84
2022-08-19T09:39:40.538Z,996.85
2022-08-19T09:40:40.479Z,996.82
2022-08-19T09:41:40.458Z,996.84
2022-08-19T09:42:50.042Z,996.89
2022-08-19T09:43:44.692Z,996.91
2022-08-19T09:44:41.439Z,996.95
2022-08-19T09:45:40.408Z,996.88
2022-08-19T09:46:40.411Z,996.84
2022-08-19T09:47:40.812Z,996.73
2022-08-19T09:48:40.368Z,996.67
2022-08-19T09:49:40.374Z,996.59
2022-08-19T09:50:51.771Z,996.59
2022-08-19T09:51:41.341Z,996.62
2022-08-19T09:52:40.329Z,996.55
2022-08-19T09:53:41.319Z,996.60
2022-08-19T09:54:40.347Z,996.67
2022-08-19T09:55:40.280Z,996.70
2022-08-19T09:56:40.280Z,996.78
2022-08-19T09:57:40.249Z,996.81
2022-08-19T09:58:40.244Z,996.85
2022-08-19T09:59:40.238Z,996.89
2022-08-19T10:00:40.226Z,996.83
2022-08-19T10:01:40.262Z,996.82
2022-08-19T10:02:40.189Z,996.85
2022-08-19T10:03:41.175Z,996.87
2022-08-19T10:04:40.169Z,996.82
2022-08-19T10:05:42.322Z,996.86
2022-08-19T10:06:46.504Z,996.88
2022-08-19T10:07:41.111Z,996.84
2022-08-19T10:08:40.122Z,996.89
2022-08-19T10:09:41.100Z,996.90
2022-08-19T10:10:40.078Z,996.92
2022-08-19T10:11:43.619Z,996.99
2022-08-19T10:12:41.061Z,997.00
2022-08-19T10:13:40.039Z,997.01
2022-08-19T10:14:40.038Z,997.00
2022-08-19T10:15:47.592Z,996.97
2022-08-19T10:16:41.002Z,996.96
2022-08-19T10:17:39.992Z,996.95
2022-08-19T10:18:40.971Z,996.96
2022-08-19T10:19:39.976Z,996.95
2022-08-19T10:20:39.950Z,996.96
2022-08-19T10:21:40.480Z,996.99
2022-08-19T10:22:39.921Z,996.99
2022-08-19T10:23:39.901Z,997.02
2022-08-19T10:24:39.901Z,997.00
2022-08-19T10:25:39.878Z,997.00
2022-08-19T10:26:39.884Z,997.04
2022-08-19T10:27:39.869Z,997.05
2022-08-19T10:28:39.840Z,997.02
2022-08-19T10:29:39.841Z,997.08
2022-08-19T10:30:40.825Z,997.14
2022-08-19T10:32:00.785Z,997.14
2022-08-19T10:32:40.789Z,997.16
2022-08-19T10:33:53.872Z,997.20
2022-08-19T10:34:48.213Z,997.20
2022-08-19T10:35:56.258Z,997.18
2022-08-19T10:36:43.321Z,997.16
2022-08-19T10:37:51.903Z,997.16
2022-08-19T10:38:46.766Z,997.17
2022-08-19T10:39:43.485Z,997.17
2022-08-19T10:40:39.689Z,997.15
2022-08-19T10:41:54.780Z,997.15
2022-08-19T10:42:39.649Z,997.18
2022-08-19T10:43:39.639Z,997.16
2022-08-19T10:44:39.632Z,997.17
2022-08-19T10:45:52.288Z,997.12
2022-08-19T10:46:40.590Z,997.15
2022-08-19T10:47:39.603Z,997.09
2022-08-19T10:48:39.580Z,997.10
2022-08-19T10:49:39.563Z,997.10
2022-08-19T10:50:39.552Z,997.15
2022-08-19T10:51:46.534Z,997.10
2022-08-19T10:52:40.523Z,997.13
2022-08-19T10:53:40.523Z,997.13
2022-08-19T10:54:39.482Z,997.14
2022-08-19T10:55:39.491Z,997.15
2022-08-19T10:56:39.465Z,997.11
2022-08-19T10:58:01.847Z,997.15
2022-08-19T10:58:40.452Z,997.14
2022-08-19T10:59:39.423Z,997.18
2022-08-19T11:00:39.409Z,997.13
2022-08-19T11:01:39.443Z,997.16
2022-08-19T11:02:39.381Z,997.16
2022-08-19T11:03:39.391Z,997.12
2022-08-19T11:04:39.350Z,997.18
2022-08-19T11:05:39.975Z,997.12
2022-08-19T11:06:39.331Z,997.17
2022-08-19T11:07:39.337Z,997.18
2022-08-19T11:08:39.313Z,997.21
2022-08-19T11:09:39.297Z,997.22
2022-08-19T11:10:39.271Z,997.26
2022-08-19T11:11:39.452Z,997.28
2022-08-19T11:12:39.253Z,997.32
2022-08-19T11:13:39.249Z,997.32
2022-08-19T11:14:39.222Z,997.32
2022-08-19T11:15:39.222Z,997.34
2022-08-19T11:16:39.193Z,997.34
2022-08-19T11:17:39.187Z,997.37
2022-08-19T11:18:39.189Z,997.36
2022-08-19T11:19:39.165Z,997.39
2022-08-19T11:20:39.142Z,997.40
2022-08-19T11:21:39.142Z,997.43
2022-08-19T11:22:41.472Z,997.49
2022-08-19T11:23:39.125Z,997.46
2022-08-19T11:24:39.104Z,997.51
2022-08-19T11:25:39.082Z,997.52
2022-08-19T11:26:39.078Z,997.56
2022-08-19T11:27:39.050Z,997.58
2022-08-19T11:28:39.054Z,997.61
2022-08-19T11:29:39.035Z,997.63
2022-08-19T11:30:39.012Z,997.62
2022-08-19T11:31:39.005Z,997.61
2022-08-19T11:32:38.982Z,997.61
2022-08-19T11:33:38.990Z,997.55
2022-08-19T11:34:38.955Z,997.60
2022-08-19T11:35:38.954Z,997.56
2022-08-19T11:36:38.935Z,997.56
2022-08-19T11:37:38.914Z,997.58
2022-08-19T11:38:38.924Z,997.58
2022-08-19T11:39:38.975Z,997.53
2022-08-19T11:40:38.887Z,997.52
2022-08-19T11:41:38.873Z,997.49
2022-08-19T11:42:38.851Z,997.45
2022-08-19T11:43:38.852Z,997.45
2022-08-19T11:44:38.831Z,997.40
2022-08-19T11:45:38.816Z,997.42
2022-08-19T11:46:38.802Z,997.35
2022-08-19T11:47:38.975Z,997.39
2022-08-19T11:48:38.821Z,997.39
2022-08-19T11:49:38.765Z,997.31
2022-08-19T11:50:38.741Z,997.35
2022-08-19T11:51:38.824Z,997.39
2022-08-19T11:52:38.735Z,997.38
2022-08-19T11:53:38.727Z,997.42
2022-08-19T11:54:38.692Z,997.37
2022-08-19T11:55:38.696Z,997.37
2022-08-19T11:56:39.664Z,997.33
2022-08-19T11:57:38.662Z,997.30
2022-08-19T11:58:38.656Z,997.32
2022-08-19T11:59:38.654Z,997.33
2022-08-19T12:00:38.637Z,997.27
2022-08-19T12:01:38.604Z,997.28
2022-08-19T12:02:38.594Z,997.28
2022-08-19T12:03:38.651Z,997.27
2022-08-19T12:04:38.566Z,997.23
2022-08-19T12:05:38.565Z,997.22
2022-08-19T12:06:38.526Z,997.20
2022-08-19T12:07:38.526Z,997.16
2022-08-19T12:08:38.508Z,997.14
2022-08-19T12:09:38.505Z,997.21
2022-08-19T12:10:38.476Z,997.18
2022-08-19T12:11:38.468Z,997.18
2022-08-19T12:12:38.457Z,997.18
2022-08-19T12:13:38.462Z,997.12
2022-08-19T12:14:38.427Z,997.17
2022-08-19T12:15:38.411Z,997.14
2022-08-19T12:16:42.587Z,997.11
2022-08-19T12:17:39.387Z,997.13
2022-08-19T12:18:38.386Z,997.10
2022-08-19T12:19:38.390Z,997.14
2022-08-19T12:20:38.348Z,997.19
2022-08-19T12:21:38.347Z,997.17
2022-08-19T12:22:38.339Z,997.21
2022-08-19T12:23:38.319Z,997.22
2022-08-19T12:24:38.288Z,997.21
2022-08-19T12:25:38.293Z,997.20
2022-08-19T12:26:53.039Z,997.20
2022-08-19T12:27:40.862Z,997.28
2022-08-19T12:28:39.259Z,997.21
2022-08-19T12:29:38.233Z,997.20
2022-08-19T12:30:38.215Z,997.22
2022-08-19T12:31:38.200Z,997.21
2022-08-19T12:32:38.188Z,997.25